sensor_id;sensor_type;location;lat;lon;timestamp;P1;durP1;ratioP1;P2;durP2;ratioP2
84794;SDS011;75026;49.184;16.564;2024-01-30T00:00:00;5.15;;;2.75;;
84794;SDS011;75026;49.184;16.564;2024-01-30T00:05:02;6.35;;;2.50;;
84794;SDS011;75026;49.184;16.564;2024-01-30T00:10:04;3.78;;;2.70;;
84794;SDS011;75026;49.184;16.564;2024-01-30T00:15:06;4.15;;;2.78;;
84794;SDS011;75026;49.184;16.564;2024-01-30T00:20:10;7.45;;;2.67;;
84794;SDS011;75026;49.184;16.564;2024-01-30T00:25:11;4.03;;;2.67;;
84794;SDS011;75026;49.184;16.564;2024-01-30T00:30:12;4.55;;;2.78;;
84794;SDS011;75026;49.184;16.564;2024-01-30T00:35:13;4.78;;;2.60;;
84794;SDS011;75026;49.184;16.564;2024-01-30T00:40:14;3.42;;;2.53;;
84794;SDS011;75026;49.184;16.564;2024-01-30T00:45:16;3.78;;;2.53;;
84794;SDS011;75026;49.184;16.564;2024-01-30T00:50:17;3.28;;;2.30;;
84794;SDS011;75026;49.184;16.564;2024-01-30T00:55:18;4.32;;;2.65;;
84794;SDS011;75026;49.184;16.564;2024-01-30T01:00:19;3.83;;;2.47;;
84794;SDS011;75026;49.184;16.564;2024-01-30T01:05:21;3.95;;;2.25;;
84794;SDS011;75026;49.184;16.564;2024-01-30T01:10:22;3.85;;;2.08;;
84794;SDS011;75026;49.184;16.564;2024-01-30T01:15:23;3.67;;;2.20;;
84794;SDS011;75026;49.184;16.564;2024-01-30T01:20:24;3.78;;;2.25;;
84794;SDS011;75026;49.184;16.564;2024-01-30T01:25:24;4.70;;;2.35;;
84794;SDS011;75026;49.184;16.564;2024-01-30T01:30:25;3.08;;;2.28;;
84794;SDS011;75026;49.184;16.564;2024-01-30T01:35:26;3.67;;;2.45;;
84794;SDS011;75026;49.184;16.564;2024-01-30T01:40:28;4.38;;;2.50;;
84794;SDS011;75026;49.184;16.564;2024-01-30T01:45:28;3.03;;;2.20;;
84794;SDS011;75026;49.184;16.564;2024-01-30T01:50:29;3.72;;;2.40;;
84794;SDS011;75026;49.184;16.564;2024-01-30T01:55:30;3.85;;;2.17;;
84794;SDS011;75026;49.184;16.564;2024-01-30T02:00:32;5.15;;;2.30;;
84794;SDS011;75026;49.184;16.564;2024-01-30T02:05:33;3.85;;;2.38;;
84794;SDS011;75026;49.184;16.564;2024-01-30T02:10:34;4.05;;;2.38;;
84794;SDS011;75026;49.184;16.564;2024-01-30T02:15:35;3.53;;;2.25;;
84794;SDS011;75026;49.184;16.564;2024-01-30T02:20:36;3.50;;;2.45;;
84794;SDS011;75026;49.184;16.564;2024-01-30T02:25:39;3.78;;;2.20;;
84794;SDS011;75026;49.184;16.564;2024-01-30T02:30:47;2.85;;;1.98;;
84794;SDS011;75026;49.184;16.564;2024-01-30T02:35:48;2.65;;;2.15;;
84794;SDS011;75026;49.184;16.564;2024-01-30T02:40:49;4.10;;;2.40;;
84794;SDS011;75026;49.184;16.564;2024-01-30T02:45:50;3.58;;;2.20;;
84794;SDS011;75026;49.184;16.564;2024-01-30T02:50:51;3.38;;;2.22;;
84794;SDS011;75026;49.184;16.564;2024-01-30T02:55:52;2.85;;;2.00;;
84794;SDS011;75026;49.184;16.564;2024-01-30T03:00:52;3.10;;;2.10;;
84794;SDS011;75026;49.184;16.564;2024-01-30T03:05:53;3.00;;;2.20;;
84794;SDS011;75026;49.184;16.564;2024-01-30T03:10:54;3.50;;;1.92;;
84794;SDS011;75026;49.184;16.564;2024-01-30T03:15:55;3.25;;;2.10;;
84794;SDS011;75026;49.184;16.564;2024-01-30T03:20:56;3.22;;;2.30;;
84794;SDS011;75026;49.184;16.564;2024-01-30T03:25:57;3.92;;;2.30;;
84794;SDS011;75026;49.184;16.564;2024-01-30T03:30:58;3.38;;;2.17;;
84794;SDS011;75026;49.184;16.564;2024-01-30T03:36:02;2.78;;;2.03;;
84794;SDS011;75026;49.184;16.564;2024-01-30T03:41:07;3.40;;;2.10;;
84794;SDS011;75026;49.184;16.564;2024-01-30T03:46:08;4.68;;;2.20;;
84794;SDS011;75026;49.184;16.564;2024-01-30T03:51:09;3.08;;;2.22;;
84794;SDS011;75026;49.184;16.564;2024-01-30T03:56:14;4.47;;;2.00;;
84794;SDS011;75026;49.184;16.564;2024-01-30T04:01:15;2.92;;;2.08;;
84794;SDS011;75026;49.184;16.564;2024-01-30T04:06:16;3.50;;;2.20;;
84794;SDS011;75026;49.184;16.564;2024-01-30T04:11:20;2.75;;;1.90;;
84794;SDS011;75026;49.184;16.564;2024-01-30T04:16:21;3.17;;;2.00;;
84794;SDS011;75026;49.184;16.564;2024-01-30T04:21:22;3.70;;;2.20;;
84794;SDS011;75026;49.184;16.564;2024-01-30T04:26:23;3.38;;;2.28;;
84794;SDS011;75026;49.184;16.564;2024-01-30T04:31:24;3.17;;;2.38;;
84794;SDS011;75026;49.184;16.564;2024-01-30T04:36:25;3.60;;;2.00;;
84794;SDS011;75026;49.184;16.564;2024-01-30T04:41:26;3.15;;;2.10;;
84794;SDS011;75026;49.184;16.564;2024-01-30T04:46:29;3.58;;;2.00;;
84794;SDS011;75026;49.184;16.564;2024-01-30T04:51:29;2.88;;;1.88;;
84794;SDS011;75026;49.184;16.564;2024-01-30T04:56:30;2.90;;;1.90;;
84794;SDS011;75026;49.184;16.564;2024-01-30T05:01:32;3.20;;;2.10;;
84794;SDS011;75026;49.184;16.564;2024-01-30T05:06:32;3.17;;;1.90;;
84794;SDS011;75026;49.184;16.564;2024-01-30T05:11:37;3.67;;;1.90;;
84794;SDS011;75026;49.184;16.564;2024-01-30T05:16:39;1.98;;;1.77;;
84794;SDS011;75026;49.184;16.564;2024-01-30T05:21:41;4.00;;;2.00;;
84794;SDS011;75026;49.184;16.564;2024-01-30T05:26:42;3.55;;;2.20;;
84794;SDS011;75026;49.184;16.564;2024-01-30T05:31:43;3.67;;;2.00;;
84794;SDS011;75026;49.184;16.564;2024-01-30T05:36:43;3.28;;;2.08;;
84794;SDS011;75026;49.184;16.564;2024-01-30T05:41:44;2.80;;;1.92;;
84794;SDS011;75026;49.184;16.564;2024-01-30T05:46:45;3.50;;;1.90;;
84794;SDS011;75026;49.184;16.564;2024-01-30T05:51:46;2.85;;;2.05;;
84794;SDS011;75026;49.184;16.564;2024-01-30T05:56:47;3.65;;;2.10;;
84794;SDS011;75026;49.184;16.564;2024-01-30T06:01:48;3.20;;;2.17;;
84794;SDS011;75026;49.184;16.564;2024-01-30T06:06:49;2.92;;;1.90;;
84794;SDS011;75026;49.184;16.564;2024-01-30T06:11:50;3.15;;;1.77;;
84794;SDS011;75026;49.184;16.564;2024-01-30T06:16:51;3.50;;;2.05;;
84794;SDS011;75026;49.184;16.564;2024-01-30T06:21:52;3.60;;;1.90;;
84794;SDS011;75026;49.184;16.564;2024-01-30T06:26:52;3.00;;;1.90;;
84794;SDS011;75026;49.184;16.564;2024-01-30T06:31:54;2.50;;;1.80;;
84794;SDS011;75026;49.184;16.564;2024-01-30T06:36:55;2.88;;;2.00;;
84794;SDS011;75026;49.184;16.564;2024-01-30T06:41:55;3.00;;;1.88;;
84794;SDS011;75026;49.184;16.564;2024-01-30T06:46:56;2.88;;;2.00;;
84794;SDS011;75026;49.184;16.564;2024-01-30T06:51:57;2.60;;;1.85;;
84794;SDS011;75026;49.184;16.564;2024-01-30T06:56:58;2.63;;;2.00;;
84794;SDS011;75026;49.184;16.564;2024-01-30T07:01:59;3.00;;;2.03;;
84794;SDS011;75026;49.184;16.564;2024-01-30T07:07:00;3.60;;;1.90;;
84794;SDS011;75026;49.184;16.564;2024-01-30T07:12:01;5.03;;;1.85;;
84794;SDS011;75026;49.184;16.564;2024-01-30T07:17:02;5.95;;;2.00;;
84794;SDS011;75026;49.184;16.564;2024-01-30T07:22:03;5.07;;;2.13;;
84794;SDS011;75026;49.184;16.564;2024-01-30T07:27:04;3.15;;;1.80;;
84794;SDS011;75026;49.184;16.564;2024-01-30T07:32:07;3.53;;;1.90;;
84794;SDS011;75026;49.184;16.564;2024-01-30T07:37:07;5.32;;;1.80;;
84794;SDS011;75026;49.184;16.564;2024-01-30T07:42:09;2.35;;;1.88;;
84794;SDS011;75026;49.184;16.564;2024-01-30T07:47:10;3.08;;;1.80;;
84794;SDS011;75026;49.184;16.564;2024-01-30T07:52:10;2.72;;;1.88;;
84794;SDS011;75026;49.184;16.564;2024-01-30T07:57:11;2.60;;;1.80;;
84794;SDS011;75026;49.184;16.564;2024-01-30T08:02:12;4.72;;;2.10;;
84794;SDS011;75026;49.184;16.564;2024-01-30T08:07:14;4.22;;;1.98;;
84794;SDS011;75026;49.184;16.564;2024-01-30T08:12:15;2.45;;;1.75;;
84794;SDS011;75026;49.184;16.564;2024-01-30T08:17:16;2.83;;;1.83;;
84794;SDS011;75026;49.184;16.564;2024-01-30T08:22:16;2.70;;;1.80;;
84794;SDS011;75026;49.184;16.564;2024-01-30T08:27:17;3.90;;;1.98;;
84794;SDS011;75026;49.184;16.564;2024-01-30T08:32:18;2.20;;;1.70;;
84794;SDS011;75026;49.184;16.564;2024-01-30T08:37:19;4.95;;;2.65;;
84794;SDS011;75026;49.184;16.564;2024-01-30T08:42:20;4.63;;;2.13;;
84794;SDS011;75026;49.184;16.564;2024-01-30T08:47:23;3.03;;;2.03;;
84794;SDS011;75026;49.184;16.564;2024-01-30T08:52:23;5.63;;;2.22;;
84794;SDS011;75026;49.184;16.564;2024-01-30T08:57:24;3.05;;;2.05;;
84794;SDS011;75026;49.184;16.564;2024-01-30T09:02:29;3.58;;;2.03;;
84794;SDS011;75026;49.184;16.564;2024-01-30T09:07:29;3.53;;;2.00;;
84794;SDS011;75026;49.184;16.564;2024-01-30T09:12:30;4.90;;;2.00;;
84794;SDS011;75026;49.184;16.564;2024-01-30T09:17:31;2.80;;;1.88;;
84794;SDS011;75026;49.184;16.564;2024-01-30T09:22:33;3.60;;;2.20;;
84794;SDS011;75026;49.184;16.564;2024-01-30T09:27:34;6.60;;;2.30;;
84794;SDS011;75026;49.184;16.564;2024-01-30T09:32:35;5.03;;;2.30;;
84794;SDS011;75026;49.184;16.564;2024-01-30T09:37:36;4.13;;;2.40;;
84794;SDS011;75026;49.184;16.564;2024-01-30T09:42:37;2.95;;;1.90;;
84794;SDS011;75026;49.184;16.564;2024-01-30T09:47:41;3.80;;;1.95;;
84794;SDS011;75026;49.184;16.564;2024-01-30T09:52:46;2.90;;;1.95;;
84794;SDS011;75026;49.184;16.564;2024-01-30T09:57:48;2.85;;;1.90;;
84794;SDS011;75026;49.184;16.564;2024-01-30T10:02:49;5.30;;;2.10;;
84794;SDS011;75026;49.184;16.564;2024-01-30T10:07:52;3.17;;;2.00;;
84794;SDS011;75026;49.184;16.564;2024-01-30T10:12:54;3.95;;;2.05;;
84794;SDS011;75026;49.184;16.564;2024-01-30T10:17:55;2.47;;;1.80;;
84794;SDS011;75026;49.184;16.564;2024-01-30T10:22:56;3.30;;;2.00;;
84794;SDS011;75026;49.184;16.564;2024-01-30T10:27:58;4.97;;;1.98;;
84794;SDS011;75026;49.184;16.564;2024-01-30T10:32:59;4.15;;;2.00;;
84794;SDS011;75026;49.184;16.564;2024-01-30T10:38:00;3.15;;;2.00;;
84794;SDS011;75026;49.184;16.564;2024-01-30T10:43:01;2.78;;;1.98;;
84794;SDS011;75026;49.184;16.564;2024-01-30T10:48:05;3.13;;;2.00;;
84794;SDS011;75026;49.184;16.564;2024-01-30T10:58:11;6.95;;;2.20;;
84794;SDS011;75026;49.184;16.564;2024-01-30T11:03:12;2.88;;;1.85;;
84794;SDS011;75026;49.184;16.564;2024-01-30T11:08:14;4.07;;;2.10;;
84794;SDS011;75026;49.184;16.564;2024-01-30T11:13:15;3.17;;;1.88;;
84794;SDS011;75026;49.184;16.564;2024-01-30T11:18:23;2.22;;;1.67;;
84794;SDS011;75026;49.184;16.564;2024-01-30T11:23:25;5.35;;;1.80;;
84794;SDS011;75026;49.184;16.564;2024-01-30T11:28:31;3.63;;;2.05;;
84794;SDS011;75026;49.184;16.564;2024-01-30T11:33:34;3.92;;;2.08;;
84794;SDS011;75026;49.184;16.564;2024-01-30T11:38:35;4.47;;;2.00;;
84794;SDS011;75026;49.184;16.564;2024-01-30T11:43:36;3.80;;;2.00;;
84794;SDS011;75026;49.184;16.564;2024-01-30T11:48:39;2.45;;;1.80;;
84794;SDS011;75026;49.184;16.564;2024-01-30T11:53:41;3.65;;;1.92;;
84794;SDS011;75026;49.184;16.564;2024-01-30T11:58:42;3.22;;;2.20;;
84794;SDS011;75026;49.184;16.564;2024-01-30T12:03:50;36.13;;;6.45;;
84794;SDS011;75026;49.184;16.564;2024-01-30T12:08:58;24.40;;;4.05;;
84794;SDS011;75026;49.184;16.564;2024-01-30T12:14:00;17.00;;;3.72;;
84794;SDS011;75026;49.184;16.564;2024-01-30T12:19:01;12.25;;;3.30;;
84794;SDS011;75026;49.184;16.564;2024-01-30T12:24:02;13.52;;;3.40;;
84794;SDS011;75026;49.184;16.564;2024-01-30T12:29:03;12.75;;;3.60;;
84794;SDS011;75026;49.184;16.564;2024-01-30T12:34:05;17.55;;;3.85;;
84794;SDS011;75026;49.184;16.564;2024-01-30T12:39:05;10.70;;;3.05;;
84794;SDS011;75026;49.184;16.564;2024-01-30T12:44:07;9.60;;;3.08;;
84794;SDS011;75026;49.184;16.564;2024-01-30T12:49:08;10.48;;;3.22;;
84794;SDS011;75026;49.184;16.564;2024-01-30T12:54:09;8.25;;;2.85;;
84794;SDS011;75026;49.184;16.564;2024-01-30T12:59:10;7.35;;;2.63;;
84794;SDS011;75026;49.184;16.564;2024-01-30T13:04:11;6.30;;;2.70;;
84794;SDS011;75026;49.184;16.564;2024-01-30T13:09:12;9.13;;;3.00;;
84794;SDS011;75026;49.184;16.564;2024-01-30T13:14:12;11.07;;;2.90;;
84794;SDS011;75026;49.184;16.564;2024-01-30T13:19:17;7.63;;;2.88;;
84794;SDS011;75026;49.184;16.564;2024-01-30T13:24:18;10.57;;;3.80;;
84794;SDS011;75026;49.184;16.564;2024-01-30T13:29:21;10.52;;;4.30;;
84794;SDS011;75026;49.184;16.564;2024-01-30T13:34:22;8.88;;;4.28;;
84794;SDS011;75026;49.184;16.564;2024-01-30T13:39:23;14.98;;;5.00;;
84794;SDS011;75026;49.184;16.564;2024-01-30T13:44:24;12.07;;;4.75;;
84794;SDS011;75026;49.184;16.564;2024-01-30T13:49:25;8.77;;;3.90;;
84794;SDS011;75026;49.184;16.564;2024-01-30T13:54:27;9.43;;;4.00;;
84794;SDS011;75026;49.184;16.564;2024-01-30T13:59:28;8.82;;;4.00;;
84794;SDS011;75026;49.184;16.564;2024-01-30T14:04:30;7.43;;;3.88;;
84794;SDS011;75026;49.184;16.564;2024-01-30T14:09:48;7.75;;;3.70;;
84794;SDS011;75026;49.184;16.564;2024-01-30T14:14:49;7.78;;;3.30;;
84794;SDS011;75026;49.184;16.564;2024-01-30T14:19:50;8.43;;;3.65;;
84794;SDS011;75026;49.184;16.564;2024-01-30T14:24:51;7.88;;;3.40;;
84794;SDS011;75026;49.184;16.564;2024-01-30T14:29:52;6.30;;;3.17;;
84794;SDS011;75026;49.184;16.564;2024-01-30T14:34:53;8.48;;;3.50;;
84794;SDS011;75026;49.184;16.564;2024-01-30T14:39:53;7.88;;;3.65;;
84794;SDS011;75026;49.184;16.564;2024-01-30T14:44:54;7.90;;;3.00;;
84794;SDS011;75026;49.184;16.564;2024-01-30T14:49:55;8.13;;;3.13;;
84794;SDS011;75026;49.184;16.564;2024-01-30T14:54:56;6.30;;;3.30;;
84794;SDS011;75026;49.184;16.564;2024-01-30T14:59:58;6.82;;;3.17;;
84794;SDS011;75026;49.184;16.564;2024-01-30T15:04:59;5.50;;;2.85;;
84794;SDS011;75026;49.184;16.564;2024-01-30T15:09:59;5.97;;;3.00;;
84794;SDS011;75026;49.184;16.564;2024-01-30T15:15:00;7.72;;;3.20;;
84794;SDS011;75026;49.184;16.564;2024-01-30T15:20:02;8.38;;;3.10;;
84794;SDS011;75026;49.184;16.564;2024-01-30T15:25:04;6.40;;;2.78;;
84794;SDS011;75026;49.184;16.564;2024-01-30T15:30:06;5.75;;;2.97;;
84794;SDS011;75026;49.184;16.564;2024-01-30T15:35:09;6.57;;;2.95;;
84794;SDS011;75026;49.184;16.564;2024-01-30T15:40:10;5.07;;;3.08;;
84794;SDS011;75026;49.184;16.564;2024-01-30T15:45:12;7.20;;;2.85;;
84794;SDS011;75026;49.184;16.564;2024-01-30T15:50:12;5.70;;;3.00;;
84794;SDS011;75026;49.184;16.564;2024-01-30T15:55:13;5.93;;;3.08;;
84794;SDS011;75026;49.184;16.564;2024-01-30T16:00:15;6.30;;;2.97;;
84794;SDS011;75026;49.184;16.564;2024-01-30T16:05:16;6.72;;;2.90;;
84794;SDS011;75026;49.184;16.564;2024-01-30T16:10:17;6.47;;;2.72;;
84794;SDS011;75026;49.184;16.564;2024-01-30T16:15:18;5.80;;;2.70;;
84794;SDS011;75026;49.184;16.564;2024-01-30T16:20:19;6.18;;;2.63;;
84794;SDS011;75026;49.184;16.564;2024-01-30T16:25:20;4.25;;;2.47;;
84794;SDS011;75026;49.184;16.564;2024-01-30T16:30:23;5.35;;;3.03;;
84794;SDS011;75026;49.184;16.564;2024-01-30T16:35:24;5.68;;;2.70;;
84794;SDS011;75026;49.184;16.564;2024-01-30T16:40:25;4.80;;;2.85;;
84794;SDS011;75026;49.184;16.564;2024-01-30T16:45:26;4.10;;;2.60;;
84794;SDS011;75026;49.184;16.564;2024-01-30T16:50:27;5.88;;;2.90;;
84794;SDS011;75026;49.184;16.564;2024-01-30T16:55:28;3.53;;;2.53;;
84794;SDS011;75026;49.184;16.564;2024-01-30T17:00:29;4.50;;;2.60;;
84794;SDS011;75026;49.184;16.564;2024-01-30T17:05:30;5.35;;;2.92;;
84794;SDS011;75026;49.184;16.564;2024-01-30T17:10:31;5.18;;;2.47;;
84794;SDS011;75026;49.184;16.564;2024-01-30T17:15:33;4.88;;;2.75;;
84794;SDS011;75026;49.184;16.564;2024-01-30T17:20:37;9.38;;;2.70;;
84794;SDS011;75026;49.184;16.564;2024-01-30T17:25:38;4.57;;;2.60;;
84794;SDS011;75026;49.184;16.564;2024-01-30T17:30:39;4.38;;;2.58;;
84794;SDS011;75026;49.184;16.564;2024-01-30T17:35:40;3.85;;;2.60;;
84794;SDS011;75026;49.184;16.564;2024-01-30T17:40:41;4.25;;;2.78;;
84794;SDS011;75026;49.184;16.564;2024-01-30T17:45:42;4.15;;;2.50;;
84794;SDS011;75026;49.184;16.564;2024-01-30T17:50:43;4.88;;;2.53;;
84794;SDS011;75026;49.184;16.564;2024-01-30T17:55:45;5.90;;;3.13;;
84794;SDS011;75026;49.184;16.564;2024-01-30T18:00:46;10.55;;;2.78;;
84794;SDS011;75026;49.184;16.564;2024-01-30T18:05:47;5.05;;;2.88;;
84794;SDS011;75026;49.184;16.564;2024-01-30T18:10:47;9.32;;;3.00;;
84794;SDS011;75026;49.184;16.564;2024-01-30T18:15:50;6.40;;;2.60;;
84794;SDS011;75026;49.184;16.564;2024-01-30T18:20:51;5.28;;;2.92;;
84794;SDS011;75026;49.184;16.564;2024-01-30T18:25:51;4.85;;;2.78;;
84794;SDS011;75026;49.184;16.564;2024-01-30T18:31:00;5.57;;;2.90;;
84794;SDS011;75026;49.184;16.564;2024-01-30T18:36:01;8.02;;;2.67;;
84794;SDS011;75026;49.184;16.564;2024-01-30T18:41:02;5.20;;;2.85;;
84794;SDS011;75026;49.184;16.564;2024-01-30T18:46:03;4.78;;;2.70;;
84794;SDS011;75026;49.184;16.564;2024-01-30T18:51:04;5.03;;;2.72;;
84794;SDS011;75026;49.184;16.564;2024-01-30T18:56:05;4.30;;;2.67;;
84794;SDS011;75026;49.184;16.564;2024-01-30T19:01:07;4.82;;;2.65;;
84794;SDS011;75026;49.184;16.564;2024-01-30T19:06:09;4.03;;;2.67;;
84794;SDS011;75026;49.184;16.564;2024-01-30T19:11:17;6.50;;;2.78;;
84794;SDS011;75026;49.184;16.564;2024-01-30T19:16:20;6.18;;;2.75;;
84794;SDS011;75026;49.184;16.564;2024-01-30T19:21:22;7.03;;;2.83;;
84794;SDS011;75026;49.184;16.564;2024-01-30T19:26:22;4.25;;;2.80;;
84794;SDS011;75026;49.184;16.564;2024-01-30T19:31:24;4.88;;;2.38;;
84794;SDS011;75026;49.184;16.564;2024-01-30T19:36:25;4.82;;;2.30;;
84794;SDS011;75026;49.184;16.564;2024-01-30T19:41:29;4.63;;;3.00;;
84794;SDS011;75026;49.184;16.564;2024-01-30T19:46:30;4.28;;;2.53;;
84794;SDS011;75026;49.184;16.564;2024-01-30T19:51:32;4.68;;;2.70;;
84794;SDS011;75026;49.184;16.564;2024-01-30T19:56:33;4.78;;;2.58;;
84794;SDS011;75026;49.184;16.564;2024-01-30T20:01:34;5.13;;;2.88;;
84794;SDS011;75026;49.184;16.564;2024-01-30T20:06:35;4.45;;;2.40;;
84794;SDS011;75026;49.184;16.564;2024-01-30T20:11:36;4.47;;;2.65;;
84794;SDS011;75026;49.184;16.564;2024-01-30T20:16:37;7.05;;;2.50;;
84794;SDS011;75026;49.184;16.564;2024-01-30T20:21:39;3.42;;;2.30;;
84794;SDS011;75026;49.184;16.564;2024-01-30T20:26:40;4.82;;;2.88;;
84794;SDS011;75026;49.184;16.564;2024-01-30T20:31:41;3.67;;;2.22;;
84794;SDS011;75026;49.184;16.564;2024-01-30T20:36:42;3.38;;;2.38;;
84794;SDS011;75026;49.184;16.564;2024-01-30T20:41:44;3.70;;;2.53;;
84794;SDS011;75026;49.184;16.564;2024-01-30T20:46:45;9.27;;;2.63;;
84794;SDS011;75026;49.184;16.564;2024-01-30T20:51:47;5.47;;;2.40;;
84794;SDS011;75026;49.184;16.564;2024-01-30T20:56:48;6.32;;;2.85;;
84794;SDS011;75026;49.184;16.564;2024-01-30T21:01:49;3.85;;;2.50;;
84794;SDS011;75026;49.184;16.564;2024-01-30T21:06:50;4.70;;;2.38;;
84794;SDS011;75026;49.184;16.564;2024-01-30T21:11:51;4.03;;;2.50;;
84794;SDS011;75026;49.184;16.564;2024-01-30T21:16:52;7.22;;;3.00;;
84794;SDS011;75026;49.184;16.564;2024-01-30T21:21:53;4.85;;;3.10;;
84794;SDS011;75026;49.184;16.564;2024-01-30T21:26:54;3.70;;;2.60;;
84794;SDS011;75026;49.184;16.564;2024-01-30T21:31:55;5.72;;;2.63;;
84794;SDS011;75026;49.184;16.564;2024-01-30T21:36:55;4.13;;;2.85;;
84794;SDS011;75026;49.184;16.564;2024-01-30T21:41:56;4.25;;;2.88;;
84794;SDS011;75026;49.184;16.564;2024-01-30T21:46:58;4.80;;;2.60;;
84794;SDS011;75026;49.184;16.564;2024-01-30T21:51:59;4.50;;;2.90;;
84794;SDS011;75026;49.184;16.564;2024-01-30T21:57:05;5.53;;;2.70;;
84794;SDS011;75026;49.184;16.564;2024-01-30T22:02:06;4.93;;;3.00;;
84794;SDS011;75026;49.184;16.564;2024-01-30T22:07:07;4.93;;;2.80;;
84794;SDS011;75026;49.184;16.564;2024-01-30T22:12:08;4.05;;;2.70;;
84794;SDS011;75026;49.184;16.564;2024-01-30T22:17:09;4.65;;;2.80;;
84794;SDS011;75026;49.184;16.564;2024-01-30T22:22:10;4.60;;;2.88;;
84794;SDS011;75026;49.184;16.564;2024-01-30T22:27:10;4.30;;;2.90;;
84794;SDS011;75026;49.184;16.564;2024-01-30T22:32:11;6.90;;;3.00;;
84794;SDS011;75026;49.184;16.564;2024-01-30T22:37:12;5.30;;;2.85;;
84794;SDS011;75026;49.184;16.564;2024-01-30T22:42:13;6.18;;;2.95;;
84794;SDS011;75026;49.184;16.564;2024-01-30T22:47:14;4.80;;;3.00;;
84794;SDS011;75026;49.184;16.564;2024-01-30T22:52:15;7.95;;;3.28;;
84794;SDS011;75026;49.184;16.564;2024-01-30T22:57:16;12.15;;;3.20;;
84794;SDS011;75026;49.184;16.564;2024-01-30T23:02:16;5.82;;;3.10;;
84794;SDS011;75026;49.184;16.564;2024-01-30T23:07:17;10.93;;;2.85;;
84794;SDS011;75026;49.184;16.564;2024-01-30T23:12:18;6.35;;;2.85;;
84794;SDS011;75026;49.184;16.564;2024-01-30T23:17:19;5.10;;;2.90;;
84794;SDS011;75026;49.184;16.564;2024-01-30T23:22:20;4.72;;;2.80;;
84794;SDS011;75026;49.184;16.564;2024-01-30T23:27:21;4.70;;;2.67;;
84794;SDS011;75026;49.184;16.564;2024-01-30T23:32:22;5.70;;;3.00;;
84794;SDS011;75026;49.184;16.564;2024-01-30T23:37:23;6.03;;;2.83;;
84794;SDS011;75026;49.184;16.564;2024-01-30T23:42:24;4.22;;;2.78;;
84794;SDS011;75026;49.184;16.564;2024-01-30T23:47:24;4.72;;;3.00;;
84794;SDS011;75026;49.184;16.564;2024-01-30T23:52:26;4.68;;;2.70;;
84794;SDS011;75026;49.184;16.564;2024-01-30T23:57:27;5.80;;;2.90;;
